METAR Data
IDs: Format: Raw Decoded Include TAF

Data at: 0623 UTC 23 Feb 2019

KSLR 230615Z AUTO 12004KT 2SM BR OVC003 11/11 A2988 RMK AO2 T01080108
KSLR 230555Z AUTO 13005KT 1 1/4SM BR OVC003 11/11 A2988 RMK AO2 T01070107 10108 20106 401080077
KSLR 230535Z AUTO 12004KT 1 1/4SM BR OVC003 11/11 A2989 RMK AO2 T01070107
KSLR 230515Z AUTO 12004KT 1 3/4SM BR OVC003 11/11 A2992 RMK AO2 T01070107
KSLR 230455Z AUTO 00000KT 3SM BR OVC003 11/11 A2993 RMK AO2 T01070107
KSLR 230435Z AUTO 00000KT 3SM BR OVC003 11/11 A2993 RMK AO2 T01070107
KSLR 230415Z AUTO 00000KT 3SM BR OVC003 11/11 A2994 RMK AO2 T01070107
KSLR 230355Z AUTO 00000KT 4SM BR OVC003 11/11 A2994 RMK AO2 T01070107
KSLR 230335Z AUTO 00000KT 3SM BR OVC003 11/11 A2994 RMK AO2 T01070107
KSLR 230315Z AUTO 10004KT 3SM BR OVC003 11/11 A2993 RMK AO2 T01070107
KSLR 230255Z AUTO 13004KT 3SM BR OVC003 11/11 A2993 RMK AO2 T01070107
KSLR 230235Z AUTO 11004KT 3SM BR OVC003 11/11 A2992 RMK AO2 T01060106
KSLR 230215Z AUTO 12004KT 3SM BR OVC003 11/11 A2993 RMK AO2 T01060106
KSLR 230155Z AUTO 00000KT 4SM BR OVC003 11/11 A2994 RMK AO2 T01060106
KSLR 230135Z AUTO 00000KT 5SM BR OVC003 11/11 A2994 RMK AO2 T01060106
KSLR 230115Z AUTO 00000KT 7SM OVC003 11/11 A2994 RMK AO2 T01060106
KSLR 230055Z AUTO 09003KT 7SM OVC005 11/11 A2994 RMK AO2 T01060106
KSLR 230035Z AUTO 09003KT 5SM BR OVC005 11/11 A2994 RMK AO2 T01070107
KSLR 230015Z AUTO 09006KT 7SM OVC005 11/11 A2994 RMK AO2 T01070107
KSLR 222355Z AUTO 00000KT 10SM OVC005 11/11 A2995 RMK AO2 60003 T01070106 10107 20086
KSLR 222335Z AUTO 09003KT 7SM OVC005 11/11 A2995 RMK AO2 T01060105
KSLR 222315Z AUTO 10004KT 7SM OVC005 11/11 A2996 RMK AO2 LTG DSNT E T01050105
KSLR 222255Z AUTO 06003KT 10SM -RA OVC005 11/10 A2996 RMK AO2 T01050103
KSLR 222235Z AUTO 09004KT 10SM -DZ OVC005 11/10 A2996 RMK AO2 LTG DSNT N T01050102
KSLR 222215Z AUTO 09007KT 10SM OVC005 10/10 A2996 RMK AO2 LTG DSNT E AND NW T01020100
KSLR 222155Z AUTO 09009KT 10SM -RA OVC005 10/10 A2996 RMK AO2 LTG DSNT NW P0001 T01020100
KSLR 222135Z AUTO 09008KT 10SM -RA OVC005 10/10 A2997 RMK AO2 LTG DSNT SE AND W P0001 T01000097
KSLR 222115Z AUTO 08007KT 10SM OVC005 10/10 A2996 RMK AO2 T01000098
KSLR 222055Z AUTO 07010KT 10SM -RA OVC005 10/10 A2997 RMK AO2 LTG DSNT E 60002 T00950095
KSLR 222035Z AUTO 08010G15KT 10SM OVC005 10/10 A2997 RMK AO2 T00960096
KSLR 222015Z AUTO 08009G15KT 5SM BR OVC003 10/10 A2999 RMK AO2 LTG DSNT E T00950095
KSLR 221955Z AUTO 06008KT 3SM -RA OVC003 09/09 A3000 RMK AO2 LTG DSNT SE T00910091
KSLR 221935Z AUTO 07008KT 1 3/4SM BR OVC003 09/09 A3001 RMK AO2 LTG DSNT E AND SE T00900090
KSLR 221915Z AUTO 07009KT 2 1/2SM BR OVC003 09/09 A3002 RMK AO2 T00900090
KSLR 221855Z AUTO 06008KT 5SM -RA OVC003 09/09 A3004 RMK AO2 P0002 T00900090
KSLR 221835Z AUTO 05004KT 3SM -RA OVC003 09/09 A3006 RMK AO2 LTG DSNT S P0002 T00880088
KSLR 221815Z AUTO 03006KT 1 3/4SM -RA OVC003 09/09 A3007 RMK AO2 LTG DSNT N S AND NW P0001 T00870087
KSLR 221755Z AUTO 04005KT 1 1/4SM BR OVC003 09/09 A3007 RMK AO2 LTG DSNT W T00860086 10088 20077
KSLR 221735Z AUTO 02007KT 3/4SM BR OVC003 09/09 A3007 RMK AO2 LTG DSNT W T00870087
KSLR 221715Z AUTO 01005KT 1/2SM FG OVC003 09/09 A3008 RMK AO2 T00870087
KSLR 221655Z AUTO 34004KT 1/2SM FG OVC003 09/09 A3009 RMK AO2 T00880088
KSLR 221635Z AUTO 35006KT 1 1/4SM BR OVC003 09/09 A3007 RMK AO2 T00870087
KSLR 221615Z AUTO 31004KT 2 1/2SM BR OVC003 09/09 A3009 RMK AO2 T00860086
KSLR 221555Z AUTO 00000KT 3SM BR OVC003 09/09 A3006 RMK AO2 LTG DSNT S T00870087
KSLR 221535Z AUTO 10006KT 2 1/2SM -RA OVC003 09/09 A3004 RMK AO2 T00850085
KSLR 221515Z AUTO 11009KT 1 1/2SM BR OVC003 08/08 A3003 RMK AO2 T00830083
KSLR 221455Z AUTO 07007KT 1 3/4SM BR OVC003 08/08 A3005 RMK AO2 T00810081
KSLR 221435Z AUTO 12010G14KT 1 3/4SM BR OVC003 08/08 A3004 RMK AO2 T00800080
KSLR 221415Z AUTO 12010KT 1 3/4SM BR OVC003 08/08 A3004 RMK AO2 T00800080
KSLR 221355Z AUTO 11009KT 1 1/2SM BR OVC003 08/08 A3004 RMK AO2 T00790079
KSLR 221335Z AUTO 10011KT 1 1/4SM BR OVC003 08/08 A3003 RMK AO2 T00770077
KSLR 221315Z AUTO 10010KT 2 1/2SM BR OVC003 08/08 A3003 RMK AO2 T00770077
KSLR 221255Z AUTO 10011KT 2SM BR OVC003 08/08 A3003 RMK AO2 T00770077
KSLR 221235Z AUTO 09010KT 2SM BR OVC003 08/08 A3003 RMK AO2 T00770076
KSLR 221215Z AUTO 06007KT 2SM BR OVC003 08/08 A3004 RMK AO2 T00770076
KSLR 221155Z AUTO 09006KT 3SM BR OVC003 08/08 A3004 RMK AO2 70001 T00770075 10082 20077
KSLR 221135Z AUTO 08005KT 4SM BR OVC005 08/08 A3006 RMK AO2 T00780075
KSLR 221115Z AUTO 09006KT 4SM BR OVC005 08/08 A3004 RMK AO2 T00780075
KSLR 221055Z AUTO 02004KT 10SM OVC005 08/08 A3005 RMK AO2 T00800075
KSLR 221035Z AUTO 00000KT 10SM OVC005 08/08 A3004 RMK AO2 T00800075
KSLR 221015Z AUTO 10008KT 10SM OVC005 08/07 A3001 RMK AO2 T00800073
KSLR 220955Z AUTO 10007KT 7SM OVC007 08/07 A3002 RMK AO2 T00800073
KSLR 220935Z AUTO 12008G11KT 10SM BKN007 OVC011 08/08 A3002 RMK AO2 T00800075
KSLR 220915Z AUTO 11008KT 10SM OVC007 08/08 A3004 RMK AO2 T00800075
KSLR 220855Z AUTO 07006KT 10SM OVC007 08/08 A3004 RMK AO2 LTG DSNT N T00800075
KSLR 220835Z AUTO 05006KT 020V080 10SM OVC007 08/07 A3004 RMK AO2 T00800073
KSLR 220815Z AUTO 10013KT 10SM -RA OVC009 08/07 A3003 RMK AO2 LTG DSNT N AND E T00800072
KSLR 220755Z AUTO 00000KT 10SM -RA OVC009 08/07 A3009 RMK AO2 T00800070
KSLR 220735Z AUTO 05003KT 10SM OVC009 08/07 A3009 RMK AO2 T00800070
KSLR 220715Z AUTO 28009KT 10SM OVC009 08/07 A3011 RMK AO2 T00820071
KSLR 220655Z AUTO 29010KT 10SM OVC009 08/07 A3009 RMK AO2 T00810070
KSLR 220635Z AUTO 10007KT 10SM OVC009 08/07 A3004 RMK AO2 T00810070
KSLR 220615Z AUTO 00000KT 10SM OVC009 08/07 A3005 RMK AO2 T00820068
KSLR 220555Z AUTO 08005KT 10SM OVC009 08/07 A3004 RMK AO2 T00780066 10085 20075 400920034
KSLR 220535Z AUTO 11010G32KT 080V150 10SM -DZ BKN009 BKN095 OVC120 08/06 A2999 RMK AO2 T00750063
KSLR 220515Z AUTO 11024G32KT 10SM BKN009 BKN100 OVC120 08/06 A2995 RMK AO2 T00760062
KSLR 220455Z AUTO 10024G27KT 10SM -RA OVC013 08/06 A3001 RMK AO2 T00780063
KSLR 220435Z AUTO 10008KT 10SM -RA OVC013 08/06 A3007 RMK AO2 T00800062
KSLR 220415Z AUTO 10012KT 10SM OVC013 08/06 A3007 RMK AO2 T00800061
KSLR 220355Z AUTO 09009KT 10SM OVC013 08/06 A3006 RMK AO2 T00810061
KSLR 220335Z AUTO 10008G11KT 10SM OVC013 08/06 A3006 RMK AO2 T00810062
KSLR 220315Z AUTO 11012G15KT 10SM OVC013 08/06 A3004 RMK AO2 T00810062
KSLR 220255Z AUTO 10013G18KT 10SM OVC013 08/06 A3002 RMK AO2 T00810061
KSLR 220235Z AUTO 10011G16KT 10SM SCT013 OVC031 08/06 A3004 RMK AO2 T00820060
KSLR 220215Z AUTO 11014G18KT 10SM OVC029 08/06 A3003 RMK AO2 T00830060
KSLR 220155Z AUTO 09010KT 10SM BKN016 OVC031 08/06 A3003 RMK AO2 T00830058
KSLR 220135Z AUTO 09006KT 10SM OVC016 08/06 A3005 RMK AO2 T00830059
KSLR 220115Z AUTO 09006KT 10SM BKN016 OVC038 08/06 A3004 RMK AO2 T00830057
KSLR 220055Z AUTO 09007G16KT 10SM SCT016 BKN038 OVC044 08/06 A3003 RMK AO2 T00830057
KSLR 220035Z AUTO 09009KT 10SM SCT016 OVC046 09/06 A3001 RMK AO2 T00850056
KSLR 220015Z AUTO 08008KT 10SM OVC046 09/06 A3002 RMK AO2 T00850055
KSLR 212355Z AUTO 09010KT 10SM OVC044 09/05 A3001 RMK AO2 LTG DSNT E T00850054 10092 20082
KSLR 212335Z AUTO 10011KT 10SM OVC046 09/05 A3001 RMK AO2 T00850054
KSLR 212315Z AUTO 10008KT 10SM OVC048 09/05 A3003 RMK AO2 T00860053
KSLR 212255Z AUTO 10008KT 10SM OVC048 09/05 A3003 RMK AO2 T00860051
KSLR 212235Z AUTO 10012G16KT 10SM OVC048 09/05 A3001 RMK AO2 T00900051
KSLR 212215Z AUTO 10014G22KT 10SM OVC050 09/05 A3000 RMK AO2 T00900047
KSLR 212155Z AUTO 10014G24KT 10SM OVC050 09/05 A2999 RMK AO2 T00900049
KSLR 212135Z AUTO 10016G21KT 10SM OVC050 09/05 A3001 RMK AO2 T00900050
KSLR 212115Z AUTO 10011G16KT 10SM OVC060 09/05 A3004 RMK AO2 T00880049
KSLR 212055Z AUTO 09013G18KT 10SM OVC060 09/05 A3003 RMK AO2 T00870051
KSLR 212035Z AUTO 08010KT 10SM OVC060 09/05 A3004 RMK AO2 LTG DSNT SE T00900049
KSLR 212015Z AUTO 08011KT 10SM OVC060 09/05 A3004 RMK AO2 T00910049
KSLR 211955Z AUTO 07008KT 10SM OVC060 09/05 A3005 RMK AO2 LTG DSNT NW T00910050
KSLR 211935Z AUTO 08012G18KT 10SM TS OVC070 09/05 A3006 RMK AO2 T00870050
KSLR 211915Z AUTO 10016G21KT 10SM OVC070 09/05 A3002 RMK AO2 LTG DSNT W T00870052
KSLR 211855Z AUTO 09008KT 10SM OVC070 09/05 A3009 RMK AO2 T00850049
KSLR 211835Z AUTO 09010KT 10SM OVC070 08/05 A3009 RMK AO2 LTG DSNT NE E AND W T00840051